sensor_id;sensor_type;location;lat;lon;timestamp;temperature;humidity
20568;DHT22;10442;49.932;11.592;2022-07-17T00:01:28;16.10;53.70
20568;DHT22;10442;49.932;11.592;2022-07-17T00:03:56;16.00;53.20
20568;DHT22;10442;49.932;11.592;2022-07-17T00:06:24;16.00;53.20
20568;DHT22;10442;49.932;11.592;2022-07-17T00:08:51;15.90;53.20
20568;DHT22;10442;49.932;11.592;2022-07-17T00:11:19;15.80;53.30
20568;DHT22;10442;49.932;11.592;2022-07-17T00:13:46;15.80;53.60
20568;DHT22;10442;49.932;11.592;2022-07-17T00:16:14;15.70;53.50
20568;DHT22;10442;49.932;11.592;2022-07-17T00:18:41;15.70;53.60
20568;DHT22;10442;49.932;11.592;2022-07-17T00:21:09;15.70;53.60
20568;DHT22;10442;49.932;11.592;2022-07-17T00:23:36;15.60;53.80
20568;DHT22;10442;49.932;11.592;2022-07-17T00:26:04;15.60;54.70
20568;DHT22;10442;49.932;11.592;2022-07-17T00:28:32;15.60;54.10
20568;DHT22;10442;49.932;11.592;2022-07-17T00:30:59;15.50;54.60
20568;DHT22;10442;49.932;11.592;2022-07-17T00:33:27;15.50;54.60
20568;DHT22;10442;49.932;11.592;2022-07-17T00:35:54;15.40;54.80
20568;DHT22;10442;49.932;11.592;2022-07-17T00:38:22;15.40;54.70
20568;DHT22;10442;49.932;11.592;2022-07-17T00:40:49;15.40;55.10
20568;DHT22;10442;49.932;11.592;2022-07-17T00:43:16;15.30;54.80
20568;DHT22;10442;49.932;11.592;2022-07-17T00:45:45;15.30;54.70
20568;DHT22;10442;49.932;11.592;2022-07-17T00:48:12;15.20;54.70
20568;DHT22;10442;49.932;11.592;2022-07-17T00:50:41;15.20;54.50
20568;DHT22;10442;49.932;11.592;2022-07-17T00:53:09;15.20;54.90
20568;DHT22;10442;49.932;11.592;2022-07-17T00:55:39;15.10;55.00
20568;DHT22;10442;49.932;11.592;2022-07-17T00:58:12;15.10;55.30
20568;DHT22;10442;49.932;11.592;2022-07-17T01:00:41;15.00;55.30
20568;DHT22;10442;49.932;11.592;2022-07-17T01:03:08;15.00;55.40
20568;DHT22;10442;49.932;11.592;2022-07-17T01:05:37;15.00;55.30
20568;DHT22;10442;49.932;11.592;2022-07-17T01:08:05;14.90;55.40
20568;DHT22;10442;49.932;11.592;2022-07-17T01:10:32;14.90;55.50
20568;DHT22;10442;49.932;11.592;2022-07-17T01:13:00;14.80;56.00
20568;DHT22;10442;49.932;11.592;2022-07-17T01:15:28;14.70;56.20
20568;DHT22;10442;49.932;11.592;2022-07-17T01:17:57;14.70;56.40
20568;DHT22;10442;49.932;11.592;2022-07-17T01:20:25;14.70;56.20
20568;DHT22;10442;49.932;11.592;2022-07-17T01:22:52;14.60;56.20
20568;DHT22;10442;49.932;11.592;2022-07-17T01:25:22;14.60;56.20
20568;DHT22;10442;49.932;11.592;2022-07-17T01:27:50;14.60;56.80
20568;DHT22;10442;49.932;11.592;2022-07-17T01:30:18;14.50;56.60
20568;DHT22;10442;49.932;11.592;2022-07-17T01:32:46;14.50;57.30
20568;DHT22;10442;49.932;11.592;2022-07-17T01:35:15;14.50;57.20
20568;DHT22;10442;49.932;11.592;2022-07-17T01:37:43;14.40;57.10
20568;DHT22;10442;49.932;11.592;2022-07-17T01:40:13;14.40;56.90
20568;DHT22;10442;49.932;11.592;2022-07-17T01:42:48;14.40;57.10
20568;DHT22;10442;49.932;11.592;2022-07-17T01:45:18;14.30;57.20
20568;DHT22;10442;49.932;11.592;2022-07-17T01:47:47;14.30;56.80
20568;DHT22;10442;49.932;11.592;2022-07-17T01:50:15;14.20;57.40
20568;DHT22;10442;49.932;11.592;2022-07-17T01:52:44;14.20;57.10
20568;DHT22;10442;49.932;11.592;2022-07-17T01:55:14;14.10;57.20
20568;DHT22;10442;49.932;11.592;2022-07-17T01:57:42;14.10;58.00
20568;DHT22;10442;49.932;11.592;2022-07-17T02:00:14;14.10;57.50
20568;DHT22;10442;49.932;11.592;2022-07-17T02:02:44;14.10;57.60
20568;DHT22;10442;49.932;11.592;2022-07-17T02:05:12;14.00;57.50
20568;DHT22;10442;49.932;11.592;2022-07-17T02:07:39;14.00;57.40
20568;DHT22;10442;49.932;11.592;2022-07-17T02:10:08;14.00;57.60
20568;DHT22;10442;49.932;11.592;2022-07-17T02:12:36;13.90;57.50
20568;DHT22;10442;49.932;11.592;2022-07-17T02:15:04;13.90;57.50
20568;DHT22;10442;49.932;11.592;2022-07-17T02:17:33;13.90;57.80
20568;DHT22;10442;49.932;11.592;2022-07-17T02:20:00;13.80;57.90
20568;DHT22;10442;49.932;11.592;2022-07-17T02:22:28;13.70;57.90
20568;DHT22;10442;49.932;11.592;2022-07-17T02:24:56;13.70;58.60
20568;DHT22;10442;49.932;11.592;2022-07-17T02:27:23;13.70;58.70
20568;DHT22;10442;49.932;11.592;2022-07-17T02:29:52;13.60;58.30
20568;DHT22;10442;49.932;11.592;2022-07-17T02:32:19;13.60;58.20
20568;DHT22;10442;49.932;11.592;2022-07-17T02:34:47;13.50;58.30
20568;DHT22;10442;49.932;11.592;2022-07-17T02:37:14;13.50;58.50
20568;DHT22;10442;49.932;11.592;2022-07-17T02:39:41;13.40;58.40
20568;DHT22;10442;49.932;11.592;2022-07-17T02:42:24;13.40;58.30
20568;DHT22;10442;49.932;11.592;2022-07-17T02:44:53;13.40;58.50
20568;DHT22;10442;49.932;11.592;2022-07-17T02:47:22;13.40;58.50
20568;DHT22;10442;49.932;11.592;2022-07-17T02:49:51;13.30;58.50
20568;DHT22;10442;49.932;11.592;2022-07-17T02:52:19;13.30;58.50
20568;DHT22;10442;49.932;11.592;2022-07-17T02:54:47;13.20;58.60
20568;DHT22;10442;49.932;11.592;2022-07-17T02:57:15;13.20;58.90
20568;DHT22;10442;49.932;11.592;2022-07-17T02:59:43;13.10;59.00
20568;DHT22;10442;49.932;11.592;2022-07-17T03:02:11;13.20;59.60
20568;DHT22;10442;49.932;11.592;2022-07-17T03:04:38;13.10;59.50
20568;DHT22;10442;49.932;11.592;2022-07-17T03:07:06;13.10;59.40
20568;DHT22;10442;49.932;11.592;2022-07-17T03:09:34;13.10;59.20
20568;DHT22;10442;49.932;11.592;2022-07-17T03:12:02;13.10;59.10
20568;DHT22;10442;49.932;11.592;2022-07-17T03:14:29;13.00;59.00
20568;DHT22;10442;49.932;11.592;2022-07-17T03:16:57;13.00;59.20
20568;DHT22;10442;49.932;11.592;2022-07-17T03:19:24;12.90;59.90
20568;DHT22;10442;49.932;11.592;2022-07-17T03:21:52;12.90;60.00
20568;DHT22;10442;49.932;11.592;2022-07-17T03:24:19;12.90;59.60
20568;DHT22;10442;49.932;11.592;2022-07-17T03:26:47;12.90;59.70
20568;DHT22;10442;49.932;11.592;2022-07-17T03:29:14;12.90;59.90
20568;DHT22;10442;49.932;11.592;2022-07-17T03:31:45;12.80;60.00
20568;DHT22;10442;49.932;11.592;2022-07-17T03:34:13;12.80;60.00
20568;DHT22;10442;49.932;11.592;2022-07-17T03:36:41;12.80;59.90
20568;DHT22;10442;49.932;11.592;2022-07-17T03:39:09;12.80;60.10
20568;DHT22;10442;49.932;11.592;2022-07-17T03:41:36;12.70;60.10
20568;DHT22;10442;49.932;11.592;2022-07-17T03:44:04;12.70;60.10
20568;DHT22;10442;49.932;11.592;2022-07-17T03:46:34;12.70;60.10
20568;DHT22;10442;49.932;11.592;2022-07-17T03:49:02;12.70;60.30
20568;DHT22;10442;49.932;11.592;2022-07-17T03:51:30;12.60;60.20
20568;DHT22;10442;49.932;11.592;2022-07-17T03:53:58;12.60;60.80
20568;DHT22;10442;49.932;11.592;2022-07-17T03:56:25;12.60;61.10
20568;DHT22;10442;49.932;11.592;2022-07-17T03:58:53;12.60;61.10
20568;DHT22;10442;49.932;11.592;2022-07-17T04:01:21;12.60;61.50
20568;DHT22;10442;49.932;11.592;2022-07-17T04:03:48;12.60;61.40
20568;DHT22;10442;49.932;11.592;2022-07-17T04:06:16;12.60;61.70
20568;DHT22;10442;49.932;11.592;2022-07-17T04:08:44;12.70;62.20
20568;DHT22;10442;49.932;11.592;2022-07-17T04:11:11;12.70;62.00
20568;DHT22;10442;49.932;11.592;2022-07-17T04:13:38;12.70;62.20
20568;DHT22;10442;49.932;11.592;2022-07-17T04:16:06;12.80;62.00
20568;DHT22;10442;49.932;11.592;2022-07-17T04:18:35;12.80;61.90
20568;DHT22;10442;49.932;11.592;2022-07-17T04:21:08;12.80;62.10
20568;DHT22;10442;49.932;11.592;2022-07-17T04:23:36;12.90;62.00
20568;DHT22;10442;49.932;11.592;2022-07-17T04:26:04;13.00;62.30
20568;DHT22;10442;49.932;11.592;2022-07-17T04:28:41;13.10;62.20
20568;DHT22;10442;49.932;11.592;2022-07-17T04:31:08;13.20;62.50
20568;DHT22;10442;49.932;11.592;2022-07-17T04:33:36;13.30;62.30
20568;DHT22;10442;49.932;11.592;2022-07-17T04:36:04;13.40;62.20
20568;DHT22;10442;49.932;11.592;2022-07-17T04:38:31;13.60;61.90
20568;DHT22;10442;49.932;11.592;2022-07-17T04:40:58;13.70;61.80
20568;DHT22;10442;49.932;11.592;2022-07-17T04:43:25;13.90;62.10
20568;DHT22;10442;49.932;11.592;2022-07-17T04:45:53;14.30;62.60
20568;DHT22;10442;49.932;11.592;2022-07-17T04:48:20;14.70;62.50
20568;DHT22;10442;49.932;11.592;2022-07-17T04:50:48;15.30;62.10
20568;DHT22;10442;49.932;11.592;2022-07-17T04:53:15;15.90;61.20
20568;DHT22;10442;49.932;11.592;2022-07-17T04:55:53;16.60;60.00
20568;DHT22;10442;49.932;11.592;2022-07-17T04:58:20;17.30;59.00
20568;DHT22;10442;49.932;11.592;2022-07-17T05:00:48;17.90;57.20
20568;DHT22;10442;49.932;11.592;2022-07-17T05:03:15;18.60;56.70
20568;DHT22;10442;49.932;11.592;2022-07-17T05:05:43;19.30;55.90
20568;DHT22;10442;49.932;11.592;2022-07-17T05:08:11;19.90;54.30
20568;DHT22;10442;49.932;11.592;2022-07-17T05:10:38;20.60;52.60
20568;DHT22;10442;49.932;11.592;2022-07-17T05:13:06;21.20;51.20
20568;DHT22;10442;49.932;11.592;2022-07-17T05:15:34;21.70;50.50
20568;DHT22;10442;49.932;11.592;2022-07-17T05:18:07;22.30;49.00
20568;DHT22;10442;49.932;11.592;2022-07-17T05:20:35;22.80;48.30
20568;DHT22;10442;49.932;11.592;2022-07-17T05:23:02;23.20;47.80
20568;DHT22;10442;49.932;11.592;2022-07-17T05:25:30;23.60;46.10
20568;DHT22;10442;49.932;11.592;2022-07-17T05:27:58;24.10;45.70
20568;DHT22;10442;49.932;11.592;2022-07-17T05:30:25;24.60;45.00
20568;DHT22;10442;49.932;11.592;2022-07-17T05:32:53;25.10;43.80
20568;DHT22;10442;49.932;11.592;2022-07-17T05:35:21;25.50;42.70
20568;DHT22;10442;49.932;11.592;2022-07-17T05:37:48;26.00;42.10
20568;DHT22;10442;49.932;11.592;2022-07-17T05:40:16;26.50;41.20
20568;DHT22;10442;49.932;11.592;2022-07-17T05:42:44;26.90;40.60
20568;DHT22;10442;49.932;11.592;2022-07-17T05:45:11;27.40;39.80
20568;DHT22;10442;49.932;11.592;2022-07-17T05:47:39;27.90;38.80
20568;DHT22;10442;49.932;11.592;2022-07-17T05:50:07;28.30;37.90
20568;DHT22;10442;49.932;11.592;2022-07-17T05:52:35;28.60;36.40
20568;DHT22;10442;49.932;11.592;2022-07-17T05:55:02;28.80;36.20
20568;DHT22;10442;49.932;11.592;2022-07-17T05:57:30;29.10;35.40
20568;DHT22;10442;49.932;11.592;2022-07-17T05:59:58;29.40;35.10
20568;DHT22;10442;49.932;11.592;2022-07-17T06:02:25;29.70;34.60
20568;DHT22;10442;49.932;11.592;2022-07-17T06:04:53;30.00;33.70
20568;DHT22;10442;49.932;11.592;2022-07-17T06:07:20;30.30;33.10
20568;DHT22;10442;49.932;11.592;2022-07-17T06:09:48;30.50;33.10
20568;DHT22;10442;49.932;11.592;2022-07-17T06:12:15;30.70;32.30
20568;DHT22;10442;49.932;11.592;2022-07-17T06:14:43;31.00;31.70
20568;DHT22;10442;49.932;11.592;2022-07-17T06:17:10;31.10;31.40
20568;DHT22;10442;49.932;11.592;2022-07-17T06:19:38;31.40;31.70
20568;DHT22;10442;49.932;11.592;2022-07-17T06:22:05;31.70;30.70
20568;DHT22;10442;49.932;11.592;2022-07-17T06:24:32;32.00;30.20
20568;DHT22;10442;49.932;11.592;2022-07-17T06:27:00;32.30;29.80
20568;DHT22;10442;49.932;11.592;2022-07-17T06:29:27;32.60;29.50
20568;DHT22;10442;49.932;11.592;2022-07-17T06:31:55;32.80;28.80
20568;DHT22;10442;49.932;11.592;2022-07-17T06:34:23;33.00;28.80
20568;DHT22;10442;49.932;11.592;2022-07-17T06:36:50;33.20;28.50
20568;DHT22;10442;49.932;11.592;2022-07-17T06:39:18;33.30;28.20
20568;DHT22;10442;49.932;11.592;2022-07-17T06:41:45;33.40;28.10
20568;DHT22;10442;49.932;11.592;2022-07-17T06:44:15;33.50;28.00
20568;DHT22;10442;49.932;11.592;2022-07-17T06:46:42;33.60;27.60
20568;DHT22;10442;49.932;11.592;2022-07-17T06:49:10;33.70;27.80
20568;DHT22;10442;49.932;11.592;2022-07-17T06:51:37;33.80;27.20
20568;DHT22;10442;49.932;11.592;2022-07-17T06:54:05;34.00;27.30
20568;DHT22;10442;49.932;11.592;2022-07-17T06:56:33;34.20;27.20
20568;DHT22;10442;49.932;11.592;2022-07-17T06:59:00;34.40;27.00
20568;DHT22;10442;49.932;11.592;2022-07-17T07:01:28;34.60;26.60
20568;DHT22;10442;49.932;11.592;2022-07-17T07:03:56;34.80;26.60
20568;DHT22;10442;49.932;11.592;2022-07-17T07:06:24;35.00;26.20
20568;DHT22;10442;49.932;11.592;2022-07-17T07:08:51;35.20;26.00
20568;DHT22;10442;49.932;11.592;2022-07-17T07:11:19;35.30;26.00
20568;DHT22;10442;49.932;11.592;2022-07-17T07:13:47;35.50;25.70
20568;DHT22;10442;49.932;11.592;2022-07-17T07:16:15;35.80;25.50
20568;DHT22;10442;49.932;11.592;2022-07-17T07:18:42;36.00;25.40
20568;DHT22;10442;49.932;11.592;2022-07-17T07:21:10;36.20;25.10
20568;DHT22;10442;49.932;11.592;2022-07-17T07:23:37;36.40;24.80
20568;DHT22;10442;49.932;11.592;2022-07-17T07:26:05;36.60;24.50
20568;DHT22;10442;49.932;11.592;2022-07-17T07:28:33;36.70;24.10
20568;DHT22;10442;49.932;11.592;2022-07-17T07:31:01;36.70;24.00
20568;DHT22;10442;49.932;11.592;2022-07-17T07:33:30;36.70;24.10
20568;DHT22;10442;49.932;11.592;2022-07-17T07:35:58;36.70;24.10
20568;DHT22;10442;49.932;11.592;2022-07-17T07:38:25;36.90;24.10
20568;DHT22;10442;49.932;11.592;2022-07-17T07:40:53;37.10;23.60
20568;DHT22;10442;49.932;11.592;2022-07-17T07:43:21;37.20;23.20
20568;DHT22;10442;49.932;11.592;2022-07-17T07:45:49;37.40;23.40
20568;DHT22;10442;49.932;11.592;2022-07-17T07:48:17;37.50;23.30
20568;DHT22;10442;49.932;11.592;2022-07-17T07:50:44;37.70;23.10
20568;DHT22;10442;49.932;11.592;2022-07-17T07:53:11;37.80;22.70
20568;DHT22;10442;49.932;11.592;2022-07-17T07:55:39;37.90;22.60
20568;DHT22;10442;49.932;11.592;2022-07-17T07:58:09;38.00;22.40
20568;DHT22;10442;49.932;11.592;2022-07-17T08:00:39;38.20;22.10
20568;DHT22;10442;49.932;11.592;2022-07-17T08:03:07;38.30;21.70
20568;DHT22;10442;49.932;11.592;2022-07-17T08:05:35;38.40;21.60
20568;DHT22;10442;49.932;11.592;2022-07-17T08:08:03;38.20;20.70
20568;DHT22;10442;49.932;11.592;2022-07-17T08:10:31;37.90;21.00
20568;DHT22;10442;49.932;11.592;2022-07-17T08:12:59;37.70;21.00
20568;DHT22;10442;49.932;11.592;2022-07-17T08:15:27;37.50;21.10
20568;DHT22;10442;49.932;11.592;2022-07-17T08:17:54;37.40;21.60
20568;DHT22;10442;49.932;11.592;2022-07-17T08:20:22;37.30;20.80
20568;DHT22;10442;49.932;11.592;2022-07-17T08:22:50;37.20;21.00
20568;DHT22;10442;49.932;11.592;2022-07-17T08:25:33;37.10;21.60
20568;DHT22;10442;49.932;11.592;2022-07-17T08:28:03;36.90;21.30
20568;DHT22;10442;49.932;11.592;2022-07-17T08:30:31;36.70;21.40
20568;DHT22;10442;49.932;11.592;2022-07-17T08:33:06;36.70;21.70
20568;DHT22;10442;49.932;11.592;2022-07-17T08:35:35;36.60;21.40
20568;DHT22;10442;49.932;11.592;2022-07-17T08:38:03;36.70;21.50
20568;DHT22;10442;49.932;11.592;2022-07-17T08:40:33;36.80;21.60
20568;DHT22;10442;49.932;11.592;2022-07-17T08:43:05;36.90;21.50
20568;DHT22;10442;49.932;11.592;2022-07-17T08:45:33;37.10;21.60
20568;DHT22;10442;49.932;11.592;2022-07-17T08:48:01;37.20;21.60
20568;DHT22;10442;49.932;11.592;2022-07-17T08:50:32;37.40;21.50
20568;DHT22;10442;49.932;11.592;2022-07-17T08:53:00;37.60;21.30
20568;DHT22;10442;49.932;11.592;2022-07-17T08:55:29;37.80;21.20
20568;DHT22;10442;49.932;11.592;2022-07-17T08:57:57;37.90;20.80
20568;DHT22;10442;49.932;11.592;2022-07-17T09:00:26;37.80;20.40
20568;DHT22;10442;49.932;11.592;2022-07-17T09:03:07;37.60;20.40
20568;DHT22;10442;49.932;11.592;2022-07-17T09:05:39;37.40;20.70
20568;DHT22;10442;49.932;11.592;2022-07-17T09:08:08;37.30;20.90
20568;DHT22;10442;49.932;11.592;2022-07-17T09:10:40;37.30;21.20
20568;DHT22;10442;49.932;11.592;2022-07-17T09:13:17;37.30;21.00
20568;DHT22;10442;49.932;11.592;2022-07-17T09:15:47;37.40;20.90
20568;DHT22;10442;49.932;11.592;2022-07-17T09:18:15;37.50;20.50
20568;DHT22;10442;49.932;11.592;2022-07-17T09:21:01;37.70;20.20
20568;DHT22;10442;49.932;11.592;2022-07-17T09:23:29;37.80;20.00
20568;DHT22;10442;49.932;11.592;2022-07-17T09:25:56;37.70;20.20
20568;DHT22;10442;49.932;11.592;2022-07-17T09:28:24;37.60;20.40
20568;DHT22;10442;49.932;11.592;2022-07-17T09:30:54;37.60;20.70
20568;DHT22;10442;49.932;11.592;2022-07-17T09:33:25;37.60;20.80
20568;DHT22;10442;49.932;11.592;2022-07-17T09:35:56;37.60;20.50
20568;DHT22;10442;49.932;11.592;2022-07-17T09:38:34;37.60;20.20
20568;DHT22;10442;49.932;11.592;2022-07-17T09:41:12;37.70;20.50
20568;DHT22;10442;49.932;11.592;2022-07-17T09:46:19;37.80;20.50
20568;DHT22;10442;49.932;11.592;2022-07-17T09:48:49;37.80;20.50
20568;DHT22;10442;49.932;11.592;2022-07-17T09:51:38;37.80;20.20
20568;DHT22;10442;49.932;11.592;2022-07-17T09:54:08;37.70;20.10
20568;DHT22;10442;49.932;11.592;2022-07-17T09:56:36;37.60;19.90
20568;DHT22;10442;49.932;11.592;2022-07-17T09:59:06;37.50;20.00
20568;DHT22;10442;49.932;11.592;2022-07-17T10:01:36;37.30;20.00
20568;DHT22;10442;49.932;11.592;2022-07-17T10:04:06;37.10;20.00
20568;DHT22;10442;49.932;11.592;2022-07-17T10:06:33;36.80;19.70
20568;DHT22;10442;49.932;11.592;2022-07-17T10:09:01;36.40;19.80
20568;DHT22;10442;49.932;11.592;2022-07-17T10:11:32;36.10;20.30
20568;DHT22;10442;49.932;11.592;2022-07-17T10:14:04;35.70;20.10
20568;DHT22;10442;49.932;11.592;2022-07-17T10:16:34;35.20;20.30
20568;DHT22;10442;49.932;11.592;2022-07-17T10:19:03;34.80;20.10
20568;DHT22;10442;49.932;11.592;2022-07-17T10:21:55;34.20;20.20
20568;DHT22;10442;49.932;11.592;2022-07-17T10:24:24;33.70;20.80
20568;DHT22;10442;49.932;11.592;2022-07-17T10:26:52;33.20;21.10
20568;DHT22;10442;49.932;11.592;2022-07-17T10:29:40;32.90;21.40
20568;DHT22;10442;49.932;11.592;2022-07-17T10:32:15;32.50;22.10
20568;DHT22;10442;49.932;11.592;2022-07-17T10:34:52;32.20;22.20
20568;DHT22;10442;49.932;11.592;2022-07-17T10:37:25;32.10;22.20
20568;DHT22;10442;49.932;11.592;2022-07-17T10:42:43;31.50;22.30
20568;DHT22;10442;49.932;11.592;2022-07-17T10:50:34;31.00;22.30
20568;DHT22;10442;49.932;11.592;2022-07-17T10:53:14;30.90;22.60
20568;DHT22;10442;49.932;11.592;2022-07-17T10:55:56;30.90;22.40
20568;DHT22;10442;49.932;11.592;2022-07-17T10:58:32;31.00;22.20
20568;DHT22;10442;49.932;11.592;2022-07-17T11:01:15;31.10;22.20
20568;DHT22;10442;49.932;11.592;2022-07-17T11:03:52;31.20;22.10
20568;DHT22;10442;49.932;11.592;2022-07-17T11:09:09;31.40;21.60
20568;DHT22;10442;49.932;11.592;2022-07-17T11:11:46;31.40;21.30
20568;DHT22;10442;49.932;11.592;2022-07-17T11:14:23;31.40;21.50
20568;DHT22;10442;49.932;11.592;2022-07-17T11:16:53;31.40;21.30
20568;DHT22;10442;49.932;11.592;2022-07-17T11:21:50;31.40;21.60
20568;DHT22;10442;49.932;11.592;2022-07-17T11:24:18;31.40;21.40
20568;DHT22;10442;49.932;11.592;2022-07-17T11:26:49;31.40;21.30
20568;DHT22;10442;49.932;11.592;2022-07-17T11:29:18;31.40;20.90
20568;DHT22;10442;49.932;11.592;2022-07-17T11:31:46;31.40;21.30
20568;DHT22;10442;49.932;11.592;2022-07-17T11:34:13;31.50;21.30
20568;DHT22;10442;49.932;11.592;2022-07-17T11:36:43;31.50;21.00
20568;DHT22;10442;49.932;11.592;2022-07-17T11:39:16;31.50;20.90
20568;DHT22;10442;49.932;11.592;2022-07-17T11:41:48;31.50;20.40
20568;DHT22;10442;49.932;11.592;2022-07-17T11:44:21;31.50;20.70
20568;DHT22;10442;49.932;11.592;2022-07-17T11:46:51;31.60;20.80
20568;DHT22;10442;49.932;11.592;2022-07-17T11:49:36;31.60;20.90
20568;DHT22;10442;49.932;11.592;2022-07-17T11:52:15;31.60;20.60
20568;DHT22;10442;49.932;11.592;2022-07-17T11:54:47;31.60;20.70
20568;DHT22;10442;49.932;11.592;2022-07-17T11:57:16;31.60;20.90
20568;DHT22;10442;49.932;11.592;2022-07-17T11:59:45;31.60;20.40
20568;DHT22;10442;49.932;11.592;2022-07-17T12:02:14;31.60;20.20
20568;DHT22;10442;49.932;11.592;2022-07-17T12:04:56;31.40;19.80
20568;DHT22;10442;49.932;11.592;2022-07-17T12:07:26;31.30;20.60
20568;DHT22;10442;49.932;11.592;2022-07-17T12:09:54;31.20;20.30
20568;DHT22;10442;49.932;11.592;2022-07-17T12:12:24;31.10;20.50
20568;DHT22;10442;49.932;11.592;2022-07-17T12:14:57;31.10;20.40
20568;DHT22;10442;49.932;11.592;2022-07-17T12:17:38;31.10;20.40
20568;DHT22;10442;49.932;11.592;2022-07-17T12:20:07;31.10;20.60
20568;DHT22;10442;49.932;11.592;2022-07-17T12:22:43;31.20;21.10
20568;DHT22;10442;49.932;11.592;2022-07-17T12:25:22;31.20;20.80
20568;DHT22;10442;49.932;11.592;2022-07-17T12:27:50;31.30;20.50
20568;DHT22;10442;49.932;11.592;2022-07-17T12:30:18;31.40;21.00
20568;DHT22;10442;49.932;11.592;2022-07-17T12:32:46;31.50;20.80
20568;DHT22;10442;49.932;11.592;2022-07-17T12:35:15;31.50;20.80
20568;DHT22;10442;49.932;11.592;2022-07-17T12:37:43;31.60;20.80
20568;DHT22;10442;49.932;11.592;2022-07-17T12:40:11;31.60;20.80
20568;DHT22;10442;49.932;11.592;2022-07-17T12:42:43;31.70;21.10
20568;DHT22;10442;49.932;11.592;2022-07-17T12:45:10;31.70;20.80
20568;DHT22;10442;49.932;11.592;2022-07-17T12:47:39;31.80;20.60
20568;DHT22;10442;49.932;11.592;2022-07-17T12:50:07;31.80;20.60
20568;DHT22;10442;49.932;11.592;2022-07-17T12:52:35;31.80;20.50
20568;DHT22;10442;49.932;11.592;2022-07-17T12:55:05;31.70;20.30
20568;DHT22;10442;49.932;11.592;2022-07-17T12:57:34;31.70;19.90
20568;DHT22;10442;49.932;11.592;2022-07-17T13:00:03;31.70;19.40
20568;DHT22;10442;49.932;11.592;2022-07-17T13:02:31;31.70;18.50
20568;DHT22;10442;49.932;11.592;2022-07-17T13:05:19;31.60;18.80
20568;DHT22;10442;49.932;11.592;2022-07-17T13:07:47;31.60;19.20
20568;DHT22;10442;49.932;11.592;2022-07-17T13:10:15;31.60;19.80
20568;DHT22;10442;49.932;11.592;2022-07-17T13:12:44;31.70;20.60
20568;DHT22;10442;49.932;11.592;2022-07-17T13:15:12;31.70;20.30
20568;DHT22;10442;49.932;11.592;2022-07-17T13:17:40;31.70;20.30
20568;DHT22;10442;49.932;11.592;2022-07-17T13:20:10;31.70;20.20
20568;DHT22;10442;49.932;11.592;2022-07-17T13:22:38;31.60;19.90
20568;DHT22;10442;49.932;11.592;2022-07-17T13:25:06;31.60;20.20
20568;DHT22;10442;49.932;11.592;2022-07-17T13:27:34;31.60;20.30
20568;DHT22;10442;49.932;11.592;2022-07-17T13:30:03;31.60;20.60
20568;DHT22;10442;49.932;11.592;2022-07-17T13:32:31;31.60;20.30
20568;DHT22;10442;49.932;11.592;2022-07-17T13:34:59;31.60;20.60
20568;DHT22;10442;49.932;11.592;2022-07-17T13:37:27;31.70;20.00
20568;DHT22;10442;49.932;11.592;2022-07-17T13:39:55;31.70;20.10
20568;DHT22;10442;49.932;11.592;2022-07-17T13:42:22;31.80;20.10
20568;DHT22;10442;49.932;11.592;2022-07-17T13:44:50;31.90;19.80
20568;DHT22;10442;49.932;11.592;2022-07-17T13:47:17;31.90;19.40
20568;DHT22;10442;49.932;11.592;2022-07-17T13:49:45;31.90;19.40
20568;DHT22;10442;49.932;11.592;2022-07-17T13:52:13;31.90;19.20
20568;DHT22;10442;49.932;11.592;2022-07-17T13:54:41;31.90;19.00
20568;DHT22;10442;49.932;11.592;2022-07-17T13:57:08;31.90;18.90
20568;DHT22;10442;49.932;11.592;2022-07-17T13:59:36;32.00;18.90
20568;DHT22;10442;49.932;11.592;2022-07-17T14:02:03;32.00;18.50
20568;DHT22;10442;49.932;11.592;2022-07-17T14:04:31;31.90;18.90
20568;DHT22;10442;49.932;11.592;2022-07-17T14:06:59;31.90;18.90
20568;DHT22;10442;49.932;11.592;2022-07-17T14:09:27;32.00;19.20
20568;DHT22;10442;49.932;11.592;2022-07-17T14:11:54;32.00;19.30
20568;DHT22;10442;49.932;11.592;2022-07-17T14:14:21;31.90;19.00
20568;DHT22;10442;49.932;11.592;2022-07-17T14:16:50;32.00;18.90
20568;DHT22;10442;49.932;11.592;2022-07-17T14:19:18;31.90;18.80
20568;DHT22;10442;49.932;11.592;2022-07-17T14:21:46;31.90;19.00
20568;DHT22;10442;49.932;11.592;2022-07-17T14:24:14;31.90;19.10
20568;DHT22;10442;49.932;11.592;2022-07-17T14:26:41;31.80;19.10
20568;DHT22;10442;49.932;11.592;2022-07-17T14:29:10;31.90;18.40
20568;DHT22;10442;49.932;11.592;2022-07-17T14:31:38;31.90;18.50
20568;DHT22;10442;49.932;11.592;2022-07-17T14:34:11;31.80;18.30
20568;DHT22;10442;49.932;11.592;2022-07-17T14:36:40;31.80;17.80
20568;DHT22;10442;49.932;11.592;2022-07-17T14:39:08;31.80;17.20
20568;DHT22;10442;49.932;11.592;2022-07-17T14:41:35;31.80;17.20
20568;DHT22;10442;49.932;11.592;2022-07-17T14:44:03;31.80;17.20
20568;DHT22;10442;49.932;11.592;2022-07-17T14:46:30;31.70;17.60
20568;DHT22;10442;49.932;11.592;2022-07-17T14:48:59;31.80;18.00
20568;DHT22;10442;49.932;11.592;2022-07-17T14:51:26;31.70;17.40
20568;DHT22;10442;49.932;11.592;2022-07-17T14:53:54;31.70;17.70
20568;DHT22;10442;49.932;11.592;2022-07-17T14:56:21;31.70;17.70
20568;DHT22;10442;49.932;11.592;2022-07-17T14:58:49;31.60;18.30
20568;DHT22;10442;49.932;11.592;2022-07-17T15:01:16;31.60;18.20
20568;DHT22;10442;49.932;11.592;2022-07-17T15:03:44;31.60;18.00
20568;DHT22;10442;49.932;11.592;2022-07-17T15:06:11;31.60;18.20
20568;DHT22;10442;49.932;11.592;2022-07-17T15:08:39;31.50;18.60
20568;DHT22;10442;49.932;11.592;2022-07-17T15:11:07;31.50;18.20
20568;DHT22;10442;49.932;11.592;2022-07-17T15:13:34;31.50;17.70
20568;DHT22;10442;49.932;11.592;2022-07-17T15:16:02;31.40;17.50
20568;DHT22;10442;49.932;11.592;2022-07-17T15:18:29;31.40;17.60
20568;DHT22;10442;49.932;11.592;2022-07-17T15:20:57;31.40;17.50
20568;DHT22;10442;49.932;11.592;2022-07-17T15:23:24;31.40;17.70
20568;DHT22;10442;49.932;11.592;2022-07-17T15:25:52;31.40;17.80
20568;DHT22;10442;49.932;11.592;2022-07-17T15:28:19;31.40;17.90
20568;DHT22;10442;49.932;11.592;2022-07-17T15:30:46;31.40;18.10
20568;DHT22;10442;49.932;11.592;2022-07-17T15:33:14;31.40;18.50
20568;DHT22;10442;49.932;11.592;2022-07-17T15:35:41;31.30;18.10
20568;DHT22;10442;49.932;11.592;2022-07-17T15:38:10;31.30;18.00
20568;DHT22;10442;49.932;11.592;2022-07-17T15:40:38;31.40;18.30
20568;DHT22;10442;49.932;11.592;2022-07-17T15:43:05;31.30;18.40